Time;durP1;ratioP1;P1;durP2;ratioP2;P2;SDS_P1;SDS_P2;PMS_P1;PMS_P2;Temp;Humidity;BMP_temperature;BMP_pressure;BME280_temperature;BME280_humidity;BME280_pressure;Samples;Min_cycle;Max_cycle;Signal;HPM_P1;HPM_P2
2023/08/19 00:02:10;;;;;;;4.07;3.80;;;25.10;93.10;;;;;;4880800;29;20457;-90
2023/08/19 00:04:36;;;;;;;4.17;3.97;;;25.10;93.10;;;;;;4880804;29;20442;-89
2023/08/19 00:07:03;;;;;;;4.43;4.03;;;25.10;93.10;;;;;;4880840;29;20459;-89
2023/08/19 00:09:34;;;;;;;3.97;3.77;;;25.10;93.10;;;;;;4880894;29;20453;-89
2023/08/19 00:12:03;;;;;;;3.93;3.53;;;25.10;93.10;;;;;;4881002;29;20483;-89
2023/08/19 00:14:30;;;;;;;3.93;3.63;;;25.10;93.10;;;;;;4880970;29;20451;-89
2023/08/19 00:16:57;;;;;;;4.17;3.87;;;25.10;93.10;;;;;;4880730;29;20456;-89
2023/08/19 00:19:24;;;;;;;4.37;4.07;;;25.10;93.10;;;;;;4892905;29;20484;-90
2023/08/19 00:21:50;;;;;;;3.90;3.70;;;25.10;93.10;;;;;;4899134;29;20468;-90
2023/08/19 00:24:17;;;;;;;3.87;3.67;;;25.10;93.10;;;;;;4899274;29;20463;-89
2023/08/19 00:26:44;;;;;;;3.80;3.60;;;25.10;93.10;;;;;;4899164;29;20459;-90
2023/08/19 00:29:13;;;;;;;4.00;3.80;;;25.10;93.10;;;;;;4899156;29;20451;-90
2023/08/19 00:31:39;;;;;;;4.07;3.83;;;25.10;93.10;;;;;;4899179;29;20806;-90
2023/08/19 00:34:07;;;;;;;3.97;3.57;;;25.20;93.10;;;;;;4899122;29;20461;-89
2023/08/19 00:36:34;;;;;;;4.10;3.80;;;25.10;93.10;;;;;;4899103;29;20451;-89
2023/08/19 00:39:01;;;;;;;4.00;3.80;;;25.10;93.10;;;;;;4898917;29;20539;-89
2023/08/19 00:41:28;;;;;;;4.00;3.70;;;25.10;93.10;;;;;;4898958;29;20455;-90
2023/08/19 00:43:55;;;;;;;4.23;3.90;;;25.10;93.10;;;;;;4898877;29;20451;-89
2023/08/19 00:46:23;;;;;;;3.67;3.47;;;25.10;93.10;;;;;;4898800;29;20452;-89
2023/08/19 00:48:50;;;;;;;4.00;3.80;;;25.10;93.00;;;;;;4888505;29;20453;-89
2023/08/19 00:51:17;;;;;;;4.63;4.33;;;25.10;93.10;;;;;;4879893;29;20453;-89
2023/08/19 00:53:45;;;;;;;3.97;3.77;;;25.10;93.00;;;;;;4889845;29;20480;-90
2023/08/19 00:56:12;;;;;;;3.80;3.60;;;25.10;93.10;;;;;;4898614;29;20439;-90
2023/08/19 00:58:39;;;;;;;4.30;4.00;;;25.10;93.10;;;;;;4898763;29;20454;-90
2023/08/19 01:01:06;;;;;;;3.90;3.70;;;25.10;93.10;;;;;;4898111;29;20499;-90
2023/08/19 01:03:34;;;;;;;3.57;3.37;;;25.20;93.10;;;;;;4898122;29;20458;-89
2023/08/19 01:06:11;;;;;;;3.97;3.67;;;25.10;93.10;;;;;;4902819;29;20545;-89
2023/08/19 01:08:45;;;;;;;4.30;4.00;;;25.10;93.10;;;;;;4917346;29;20435;-90
2023/08/19 01:11:17;;;;;;;3.80;3.60;;;25.10;93.10;;;;;;4917221;29;20464;-90
2023/08/19 01:13:53;;;;;;;3.50;3.30;;;25.10;93.00;;;;;;4915538;29;20460;-90
2023/08/19 01:16:24;;;;;;;3.87;3.57;;;25.10;93.00;;;;;;4917346;29;20458;-89
2023/08/19 01:18:54;;;;;;;3.77;3.47;;;25.10;93.00;;;;;;4915843;29;20442;-89
2023/08/19 01:21:22;;;;;;;3.90;3.70;;;25.10;93.00;;;;;;4917127;29;20545;-90
2023/08/19 01:23:50;;;;;;;3.53;3.33;;;25.10;93.00;;;;;;4917158;29;20468;-90
2023/08/19 01:26:19;;;;;;;3.60;3.40;;;25.10;93.00;;;;;;4917084;29;20958;-90
2023/08/19 01:28:47;;;;;;;3.80;3.50;;;25.10;93.00;;;;;;4917199;29;20458;-89
2023/08/19 01:31:14;;;;;;;3.83;3.63;;;25.10;93.00;;;;;;4917937;29;20452;-90
2023/08/19 01:33:41;;;;;;;4.20;3.90;;;25.10;93.00;;;;;;4917006;29;20450;-90
2023/08/19 01:36:16;;;;;;;3.60;3.40;;;25.10;93.00;;;;;;4917361;29;20481;-89
2023/08/19 01:38:49;;;;;;;3.87;3.57;;;25.10;93.00;;;;;;4917278;29;20442;-90
2023/08/19 01:41:20;;;;;;;3.83;3.63;;;25.10;93.00;;;;;;4917110;29;20844;-90
2023/08/19 01:43:48;;;;;;;3.37;3.17;;;25.10;93.00;;;;;;4916910;29;20459;-90
2023/08/19 01:46:15;;;;;;;3.50;3.30;;;25.10;93.00;;;;;;4906953;29;20470;-90
2023/08/19 01:48:42;;;;;;;3.97;3.70;;;25.10;93.00;;;;;;4898322;29;20806;-89
2023/08/19 01:51:09;;;;;;;4.10;3.80;;;25.10;93.00;;;;;;4898332;29;20452;-90
2023/08/19 01:53:36;;;;;;;3.53;3.33;;;25.00;93.00;;;;;;4888779;29;20516;-90
2023/08/19 01:56:03;;;;;;;4.50;4.20;;;25.10;93.00;;;;;;4884557;29;20445;-89
2023/08/19 01:58:31;;;;;;;3.80;3.60;;;25.10;93.00;;;;;;4898014;29;20454;-89
2023/08/19 02:00:58;;;;;;;4.20;3.90;;;25.10;93.00;;;;;;4881350;29;20491;-90
2023/08/19 02:03:24;;;;;;;4.10;3.80;;;25.10;93.00;;;;;;4879169;29;20462;-89
2023/08/19 02:05:51;;;;;;;3.70;3.50;;;25.00;93.00;;;;;;4888252;29;20462;-89
2023/08/19 02:08:18;;;;;;;3.77;3.57;;;25.00;93.00;;;;;;4901595;29;20451;-89
2023/08/19 02:10:45;;;;;;;3.60;3.30;;;25.00;93.00;;;;;;4901782;29;20876;-90
2023/08/19 02:13:12;;;;;;;3.57;3.37;;;25.00;93.00;;;;;;4898201;29;20451;-89
2023/08/19 02:15:40;;;;;;;3.80;3.50;;;25.00;93.00;;;;;;4884454;29;20449;-89
2023/08/19 02:18:07;;;;;;;4.50;4.10;;;25.00;93.00;;;;;;4898079;29;20547;-89
2023/08/19 02:20:34;;;;;;;3.87;3.67;;;25.00;93.00;;;;;;4901536;29;20934;-90
2023/08/19 02:23:01;;;;;;;4.20;3.90;;;25.00;93.00;;;;;;4901264;29;20471;-90
2023/08/19 02:25:28;;;;;;;3.93;3.67;;;25.00;93.00;;;;;;4893594;29;20467;-89
2023/08/19 02:27:55;;;;;;;3.50;3.30;;;25.00;93.00;;;;;;4882682;29;20451;-90
2023/08/19 02:30:22;;;;;;;4.20;3.90;;;25.00;93.00;;;;;;4882589;29;20548;-90
2023/08/19 02:32:50;;;;;;;3.70;3.50;;;25.00;93.00;;;;;;4882374;29;20453;-89
2023/08/19 02:35:18;;;;;;;3.97;3.77;;;25.00;93.00;;;;;;4885956;29;20539;-90
2023/08/19 02:37:44;;;;;;;4.13;3.83;;;25.00;93.00;;;;;;4900978;29;20539;-90
2023/08/19 02:40:11;;;;;;;4.50;4.30;;;25.00;93.00;;;;;;4901322;29;20495;-90
2023/08/19 02:42:38;;;;;;;3.80;3.60;;;25.00;92.90;;;;;;4900930;29;20456;-90
2023/08/19 02:45:06;;;;;;;3.50;3.30;;;25.00;93.00;;;;;;4901152;29;20546;-90
2023/08/19 02:47:33;;;;;;;4.03;3.73;;;25.00;92.90;;;;;;4883686;29;20456;-89
2023/08/19 02:50:01;;;;;;;3.40;3.20;;;25.00;92.90;;;;;;4882479;29;20563;-90
2023/08/19 02:52:28;;;;;;;3.97;3.77;;;25.10;93.00;;;;;;4881911;29;20468;-90
2023/08/19 02:54:55;;;;;;;3.70;3.40;;;25.00;92.90;;;;;;4882478;29;20528;-90
2023/08/19 02:57:22;;;;;;;3.53;3.33;;;25.00;92.90;;;;;;4882313;29;20484;-90
2023/08/19 02:59:48;;;;;;;3.53;3.33;;;25.00;93.00;;;;;;4882018;29;20457;-90
2023/08/19 03:02:15;;;;;;;3.57;3.37;;;25.00;93.30;;;;;;4881965;29;20818;-89
2023/08/19 03:04:42;;;;;;;3.30;3.10;;;25.00;92.90;;;;;;4897560;29;20444;-90
2023/08/19 03:07:10;;;;;;;3.00;2.80;;;25.00;93.00;;;;;;4900820;29;20527;-90
2023/08/19 03:09:37;;;;;;;3.63;3.33;;;25.00;92.90;;;;;;4900779;29;20447;-89
2023/08/19 03:12:04;;;;;;;4.07;3.80;;;25.00;92.90;;;;;;4900773;29;20478;-90
2023/08/19 03:14:31;;;;;;;4.13;3.90;;;25.00;92.90;;;;;;4900889;29;20439;-90
2023/08/19 03:16:58;;;;;;;3.93;3.73;;;25.00;92.90;;;;;;4900325;29;20444;-89
2023/08/19 03:19:26;;;;;;;3.53;3.33;;;25.00;92.90;;;;;;4899608;29;20547;-90
2023/08/19 03:21:54;;;;;;;3.43;3.23;;;25.00;92.90;;;;;;4899961;29;20503;-90
2023/08/19 03:24:22;;;;;;;3.57;3.37;;;25.00;92.90;;;;;;4900210;29;20478;-90
2023/08/19 03:26:49;;;;;;;4.07;3.77;;;25.00;93.30;;;;;;4900217;29;21006;-89
2023/08/19 03:29:16;;;;;;;3.77;3.57;;;25.00;92.90;;;;;;4882086;29;20539;-89
2023/08/19 03:31:43;;;;;;;3.57;3.37;;;25.00;92.90;;;;;;4890954;29;20452;-90
2023/08/19 03:34:10;;;;;;;3.80;3.60;;;25.00;92.90;;;;;;4900410;29;20447;-89
2023/08/19 03:36:37;;;;;;;3.60;3.40;;;25.00;92.90;;;;;;4889754;29;20508;-89
2023/08/19 03:39:04;;;;;;;3.63;3.33;;;25.00;92.90;;;;;;4881483;29;20447;-89
2023/08/19 03:41:32;;;;;;;3.43;3.23;;;25.00;92.90;;;;;;4881323;29;20492;-89
2023/08/19 03:43:59;;;;;;;3.73;3.53;;;25.00;92.90;;;;;;4881433;29;20490;-90
2023/08/19 03:46:25;;;;;;;3.90;3.60;;;25.00;92.90;;;;;;4891500;29;20931;-89
2023/08/19 03:48:52;;;;;;;3.50;3.30;;;25.00;92.90;;;;;;4898666;29;20463;-89
2023/08/19 03:51:19;;;;;;;3.60;3.40;;;25.00;92.80;;;;;;4881172;29;20446;-89
2023/08/19 03:53:46;;;;;;;3.13;2.93;;;25.00;92.80;;;;;;4891435;29;20481;-90
2023/08/19 03:56:12;;;;;;;3.03;2.83;;;25.00;92.90;;;;;;4899782;29;20551;-89
2023/08/19 03:58:41;;;;;;;3.57;3.37;;;25.00;92.80;;;;;;4899778;29;20536;-90
2023/08/19 04:01:08;;;;;;;3.60;3.30;;;25.00;92.80;;;;;;4900049;29;20574;-89
2023/08/19 04:03:35;;;;;;;3.43;3.23;;;25.00;92.80;;;;;;4918670;29;20440;-90
2023/08/19 04:06:02;;;;;;;3.50;3.30;;;25.00;92.80;;;;;;4918737;29;20444;-89
2023/08/19 04:08:29;;;;;;;3.17;2.97;;;25.00;92.80;;;;;;4918311;29;20447;-89
2023/08/19 04:10:56;;;;;;;3.40;3.20;;;25.00;92.80;;;;;;4918454;29;20811;-90
2023/08/19 04:13:23;;;;;;;4.20;3.90;;;25.00;92.80;;;;;;4918519;29;20813;-90
2023/08/19 04:15:51;;;;;;;3.93;3.63;;;25.00;92.80;;;;;;4918848;29;20531;-89
2023/08/19 04:18:18;;;;;;;3.30;3.10;;;25.00;92.80;;;;;;4905286;29;20556;-89
2023/08/19 04:20:45;;;;;;;3.87;3.67;;;25.00;92.80;;;;;;4899312;29;20490;-90
2023/08/19 04:23:13;;;;;;;3.70;3.50;;;25.00;92.80;;;;;;4899111;29;20560;-89
2023/08/19 04:25:40;;;;;;;3.40;3.20;;;25.00;92.80;;;;;;4902575;29;20448;-89
2023/08/19 04:28:07;;;;;;;3.70;3.50;;;25.00;92.80;;;;;;4918219;29;20451;-89
2023/08/19 04:30:36;;;;;;;3.50;3.30;;;25.00;92.80;;;;;;4918277;29;20858;-89
2023/08/19 04:33:04;;;;;;;3.50;3.30;;;25.00;92.80;;;;;;4918061;29;20479;-89
2023/08/19 04:35:31;;;;;;;3.27;3.07;;;25.00;92.80;;;;;;4917921;29;20455;-90
2023/08/19 04:37:58;;;;;;;3.47;3.27;;;25.00;92.80;;;;;;4918905;29;20527;-89
2023/08/19 04:40:25;;;;;;;3.43;3.23;;;25.00;92.80;;;;;;4918035;29;20533;-89
2023/08/19 04:42:52;;;;;;;3.50;3.30;;;25.00;92.80;;;;;;4917833;29;20439;-90
2023/08/19 04:45:19;;;;;;;3.00;2.80;;;25.00;92.80;;;;;;4913733;29;20466;-89
2023/08/19 04:47:46;;;;;;;3.63;3.43;;;25.00;92.80;;;;;;4917792;29;20447;-89
2023/08/19 04:50:14;;;;;;;3.43;3.23;;;25.00;92.80;;;;;;4917880;29;20882;-89
2023/08/19 04:52:41;;;;;;;3.00;2.80;;;25.00;92.80;;;;;;4917536;29;20536;-89
2023/08/19 04:55:09;;;;;;;3.20;3.00;;;25.10;92.80;;;;;;4917556;29;20447;-89
2023/08/19 04:57:36;;;;;;;3.13;2.90;;;25.00;92.80;;;;;;4917713;29;20523;-90
2023/08/19 05:00:03;;;;;;;3.20;3.00;;;25.00;92.80;;;;;;4906523;29;20458;-90
2023/08/19 05:02:30;;;;;;;3.30;3.10;;;25.00;92.80;;;;;;4898674;29;20582;-90
2023/08/19 05:04:57;;;;;;;2.87;2.67;;;25.00;92.80;;;;;;4898617;29;20452;-90
2023/08/19 05:07:25;;;;;;;3.40;3.20;;;25.00;92.80;;;;;;4907099;29;20943;-90
2023/08/19 05:09:52;;;;;;;3.37;3.17;;;25.00;92.70;;;;;;4917343;29;20453;-89
2023/08/19 05:12:18;;;;;;;3.00;2.80;;;25.00;92.80;;;;;;4916593;29;20455;-89
2023/08/19 05:14:45;;;;;;;3.07;2.87;;;25.00;92.80;;;;;;4898725;29;20440;-90
2023/08/19 05:17:12;;;;;;;3.43;3.23;;;25.00;92.70;;;;;;4899371;29;20462;-89
2023/08/19 05:19:39;;;;;;;3.30;3.10;;;25.00;92.80;;;;;;4898607;29;20520;-90
2023/08/19 05:22:06;;;;;;;3.53;3.33;;;25.00;92.70;;;;;;4898236;29;20527;-90
2023/08/19 05:24:34;;;;;;;3.60;3.40;;;25.00;92.70;;;;;;4898137;29;20544;-90
2023/08/19 05:27:01;;;;;;;3.90;3.60;;;25.00;92.70;;;;;;4899812;29;20448;-90
2023/08/19 05:29:28;;;;;;;3.60;3.40;;;25.00;92.70;;;;;;4898528;29;20455;-90
2023/08/19 05:31:57;;;;;;;3.40;3.20;;;25.00;92.80;;;;;;4898150;29;20969;-90
2023/08/19 05:34:24;;;;;;;3.80;3.60;;;25.00;93.10;;;;;;4909651;29;20525;-90
2023/08/19 05:36:51;;;;;;;3.37;3.17;;;25.00;92.80;;;;;;4917337;29;20444;-89
2023/08/19 05:39:18;;;;;;;3.77;3.53;;;25.00;92.80;;;;;;4916483;29;20530;-90
2023/08/19 05:41:46;;;;;;;3.50;3.30;;;25.00;92.70;;;;;;4918907;29;20915;-90
2023/08/19 05:44:13;;;;;;;3.17;2.97;;;25.00;92.80;;;;;;4921551;29;20442;-89
2023/08/19 05:46:40;;;;;;;3.80;3.60;;;25.00;92.80;;;;;;4921017;29;20439;-90
2023/08/19 05:49:06;;;;;;;3.67;3.47;;;25.00;92.80;;;;;;4920949;29;20446;-90
2023/08/19 05:51:34;;;;;;;3.10;2.90;;;25.00;92.70;;;;;;4920763;29;20465;-90
2023/08/19 05:54:02;;;;;;;3.60;3.40;;;25.00;92.70;;;;;;4920898;29;20489;-90
2023/08/19 05:56:29;;;;;;;3.37;3.17;;;25.00;92.70;;;;;;4921020;29;20550;-89
2023/08/19 05:58:57;;;;;;;4.07;3.77;;;25.00;92.70;;;;;;4920911;29;20447;-89
2023/08/19 06:01:24;;;;;;;2.53;2.43;;;25.00;92.70;;;;;;4920786;29;20509;-89
2023/08/19 06:03:51;;;;;;;3.00;2.80;;;25.00;92.80;;;;;;4920569;29;20460;-90
2023/08/19 06:06:18;;;;;;;3.03;2.83;;;25.00;92.70;;;;;;4911354;29;20452;-90
2023/08/19 06:08:45;;;;;;;3.17;2.97;;;25.10;93.10;;;;;;4901917;29;20441;-90
2023/08/19 06:11:12;;;;;;;3.37;3.17;;;25.00;92.80;;;;;;4901575;29;20445;-90
2023/08/19 06:13:39;;;;;;;5.30;3.07;;;25.00;92.70;;;;;;4901755;29;20874;-90
2023/08/19 06:16:07;;;;;;;3.27;3.07;;;25.00;92.70;;;;;;4901744;29;20448;-89
2023/08/19 06:18:34;;;;;;;3.30;3.10;;;25.00;92.80;;;;;;4901793;29;20477;-89
2023/08/19 06:21:01;;;;;;;3.53;3.23;;;25.00;92.70;;;;;;4901695;29;20448;-90
2023/08/19 06:23:28;;;;;;;3.07;2.87;;;25.00;92.80;;;;;;4901494;29;20478;-90
2023/08/19 06:25:55;;;;;;;2.90;2.70;;;25.00;92.80;;;;;;4901252;29;20527;-89
2023/08/19 06:28:22;;;;;;;3.30;3.10;;;25.00;92.80;;;;;;4902029;29;20447;-90
2023/08/19 06:30:50;;;;;;;3.30;3.10;;;25.00;92.80;;;;;;4901407;29;20886;-89
2023/08/19 06:33:19;;;;;;;2.87;2.77;;;25.00;92.80;;;;;;4903464;29;20609;-90
2023/08/19 06:35:49;;;;;;;3.30;3.10;;;25.00;92.80;;;;;;4920163;29;20458;-89
2023/08/19 06:38:18;;;;;;;3.13;2.93;;;25.00;92.80;;;;;;4920547;29;20455;-89
2023/08/19 06:40:55;;;;;;;3.50;3.30;;;25.00;92.70;;;;;;4901061;29;20444;-90
2023/08/19 06:43:24;;;;;;;2.80;2.63;;;25.00;92.70;;;;;;4901272;29;20440;-89
2023/08/19 06:45:52;;;;;;;2.83;2.63;;;25.00;92.70;;;;;;4909863;29;20454;-90
2023/08/19 06:48:23;;;;;;;2.93;2.73;;;25.00;92.70;;;;;;4919335;29;20865;-89
2023/08/19 06:50:51;;;;;;;2.27;2.17;;;25.00;92.60;;;;;;4919741;29;20438;-89
2023/08/19 06:53:18;;;;;;;3.03;2.83;;;25.00;92.50;;;;;;4918824;29;20490;-90
2023/08/19 06:55:51;;;;;;;3.30;3.10;;;25.00;93.00;;;;;;4914347;29;20472;-89
2023/08/19 06:58:24;;;;;;;3.37;3.07;;;25.00;92.60;;;;;;4901047;29;20429;-90
2023/08/19 07:00:59;;;;;;;2.63;2.50;;;25.00;92.60;;;;;;4900999;29;20444;-90
2023/08/19 07:03:29;;;;;;;3.10;2.80;;;25.00;92.60;;;;;;4900651;29;20452;-90
2023/08/19 07:05:57;;;;;;;2.87;2.60;;;25.00;92.70;;;;;;4900693;29;20458;-90
2023/08/19 07:08:27;;;;;;;3.10;2.90;;;25.00;92.70;;;;;;4900793;29;20455;-90
2023/08/19 07:10:55;;;;;;;3.00;2.80;;;25.00;92.70;;;;;;4900798;29;20544;-90
2023/08/19 07:13:23;;;;;;;3.27;3.07;;;25.00;92.70;;;;;;4900467;29;20547;-90
2023/08/19 07:15:56;;;;;;;3.40;2.87;;;25.00;92.80;;;;;;4900425;29;20452;-90
2023/08/19 07:18:26;;;;;;;3.00;2.80;;;25.00;92.80;;;;;;4900431;29;20479;-89
2023/08/19 07:20:57;;;;;;;4.00;2.83;;;25.00;92.80;;;;;;4901488;29;20459;-90
2023/08/19 07:23:25;;;;;;;2.90;2.70;;;25.00;92.80;;;;;;4903012;29;20491;-90
2023/08/19 07:25:52;;;;;;;2.93;2.70;;;25.00;92.80;;;;;;4919008;29;20442;-90
2023/08/19 07:28:22;;;;;;;2.53;2.43;;;25.00;92.80;;;;;;4919032;29;20802;-90
2023/08/19 07:30:49;;;;;;;3.13;2.87;;;25.00;92.80;;;;;;4919527;29;20459;-90
2023/08/19 07:33:16;;;;;;;2.70;2.50;;;25.00;93.20;;;;;;4919273;29;20561;-90
2023/08/19 07:35:43;;;;;;;3.40;2.60;;;25.00;92.90;;;;;;4918944;29;20449;-90
2023/08/19 07:38:11;;;;;;;2.90;2.60;;;25.00;92.80;;;;;;4914489;29;20460;-90
2023/08/19 07:40:38;;;;;;;2.90;2.70;;;25.00;92.90;;;;;;4900216;29;20458;-89
2023/08/19 07:43:05;;;;;;;2.90;2.70;;;25.00;92.80;;;;;;4900049;29;20499;-90
2023/08/19 07:45:32;;;;;;;2.83;2.63;;;25.00;92.90;;;;;;4904027;29;20461;-90
2023/08/19 07:47:58;;;;;;;3.23;2.80;;;25.00;92.90;;;;;;4919047;29;20457;-90
2023/08/19 07:50:25;;;;;;;3.00;2.80;;;25.10;92.90;;;;;;4918834;29;20538;-90
2023/08/19 07:52:52;;;;;;;2.87;2.57;;;25.10;92.80;;;;;;4918724;29;20485;-90
2023/08/19 07:55:20;;;;;;;4.47;2.47;;;25.10;92.80;;;;;;4918753;29;20531;-87
2023/08/19 07:57:47;;;;;;;2.90;2.70;;;25.10;92.90;;;;;;4919954;29;20452;-95
2023/08/19 08:00:15;;;;;;;4.00;3.07;;;25.10;92.90;;;;;;4919739;29;20950;-93
2023/08/19 08:02:42;;;;;;;3.07;2.87;;;25.10;93.00;;;;;;4919207;29;20491;-93
2023/08/19 08:05:10;;;;;;;6.50;3.60;;;25.10;93.00;;;;;;4919289;29;20448;-86
2023/08/19 08:07:38;;;;;;;3.00;2.80;;;25.10;93.00;;;;;;4928755;29;20525;-89
2023/08/19 08:10:06;;;;;;;3.17;2.87;;;25.10;93.00;;;;;;4933649;29;20447;-90
2023/08/19 08:12:34;;;;;;;3.23;2.93;;;25.10;93.30;;;;;;4936471;29;20438;-90
2023/08/19 08:15:02;;;;;;;2.73;2.40;;;25.10;93.40;;;;;;4931078;29;20439;-90
2023/08/19 08:17:29;;;;;;;2.80;2.40;;;25.10;93.20;;;;;;4930092;29;20525;-90
2023/08/19 08:19:57;;;;;;;6.03;2.53;;;25.00;93.10;;;;;;4933114;29;20866;-90
2023/08/19 08:22:25;;;;;;;3.10;2.80;;;25.10;93.00;;;;;;4932382;29;20524;-90
2023/08/19 08:24:52;;;;;;;3.27;3.07;;;25.10;93.00;;;;;;4925184;29;20526;-89
2023/08/19 08:27:19;;;;;;;2.93;2.73;;;25.10;92.90;;;;;;4927524;29;20439;-90
2023/08/19 08:29:50;;;;;;;3.20;2.63;;;25.20;92.90;;;;;;4931550;29;20977;-89
2023/08/19 08:32:17;;;;;;;2.70;2.50;;;25.20;93.00;;;;;;4929031;29;20435;-90
2023/08/19 08:34:44;;;;;;;3.23;2.90;;;25.20;92.90;;;;;;4924898;29;20456;-89
2023/08/19 08:37:11;;;;;;;3.10;2.73;;;25.20;92.90;;;;;;4930509;29;20470;-90
2023/08/19 08:39:39;;;;;;;3.27;2.97;;;25.20;92.90;;;;;;4933553;29;20463;-90
2023/08/19 08:42:08;;;;;;;2.93;2.60;;;25.20;92.90;;;;;;4931207;29;20474;-89
2023/08/19 08:44:38;;;;;;;2.93;2.73;;;25.20;92.90;;;;;;4927695;29;20847;-90
2023/08/19 08:47:09;;;;;;;2.83;2.63;;;25.20;92.90;;;;;;4927887;29;20445;-89
2023/08/19 08:49:37;;;;;;;2.90;2.70;;;25.20;92.90;;;;;;4930494;29;20494;-89
2023/08/19 08:52:05;;;;;;;2.63;2.47;;;25.20;93.00;;;;;;4926670;29;20474;-90
2023/08/19 08:54:34;;;;;;;2.90;2.70;;;25.20;93.00;;;;;;4930128;29;20459;-90
2023/08/19 08:57:02;;;;;;;2.63;2.43;;;25.30;93.10;;;;;;4930657;29;20530;-90
2023/08/19 08:59:29;;;;;;;4.47;2.63;;;25.30;93.10;;;;;;4930154;29;20946;-90
2023/08/19 09:01:57;;;;;;;3.20;2.90;;;25.30;93.20;;;;;;4929466;29;20485;-90
2023/08/19 09:04:29;;;;;;;2.83;2.63;;;25.30;93.20;;;;;;4930055;29;20788;-90
2023/08/19 09:07:02;;;;;;;2.30;2.10;;;25.40;93.20;;;;;;4919468;29;20456;-90
2023/08/19 09:09:34;;;;;;;3.00;2.70;;;25.40;93.10;;;;;;4926489;29;20515;-91
2023/08/19 09:12:04;;;;;;;2.60;2.40;;;25.40;93.20;;;;;;4917557;29;20470;-95
2023/08/19 09:14:39;;;;;;;2.83;2.63;;;25.40;93.20;;;;;;4917689;29;20519;-92
2023/08/19 09:17:12;;;;;;;2.57;2.37;;;25.40;93.10;;;;;;4918181;29;20544;-92
2023/08/19 09:19:40;;;;;;;2.83;2.63;;;25.40;93.10;;;;;;4921624;29;20795;-91
2023/08/19 09:22:11;;;;;;;3.70;2.80;;;25.40;93.10;;;;;;4917341;29;20993;-93
2023/08/19 09:24:39;;;;;;;2.70;2.50;;;25.40;93.10;;;;;;4914918;29;20990;-90
2023/08/19 09:27:07;;;;;;;3.23;2.30;;;25.40;93.00;;;;;;4914918;29;20549;-95
2023/08/19 09:29:50;;;;;;;3.07;2.87;;;25.40;93.00;;;;;;4917636;29;20452;-96
2023/08/19 09:32:26;;;;;;;3.80;2.80;;;25.40;93.10;;;;;;4920464;29;20826;-96
2023/08/19 09:35:14;;;;;;;2.70;2.53;;;25.40;93.00;;;;;;4916483;29;20467;-96
2023/08/19 09:37:42;;;;;;;2.50;2.20;;;25.50;93.10;;;;;;4898215;29;20924;-92
2023/08/19 09:40:11;;;;;;;2.87;2.43;;;25.40;93.00;;;;;;4898108;29;20456;-91
2023/08/19 09:42:38;;;;;;;2.60;2.40;;;25.50;93.10;;;;;;4898406;29;20500;-92
2023/08/19 09:45:07;;;;;;;2.50;2.30;;;25.50;93.10;;;;;;4898277;29;20452;-93
2023/08/19 09:47:48;;;;;;;2.50;2.30;;;25.50;93.10;;;;;;4904879;29;20515;-91
2023/08/19 09:50:20;;;;;;;2.80;2.60;;;25.50;93.10;;;;;;4898694;29;20443;-96
2023/08/19 09:52:54;;;;;;;2.40;2.30;;;25.50;93.10;;;;;;4916768;29;20846;-91
2023/08/19 09:55:22;;;;;;;3.00;2.80;;;25.50;93.10;;;;;;4917685;29;20450;-93
2023/08/19 09:57:49;;;;;;;3.00;2.80;;;25.50;93.10;;;;;;4917507;29;20440;-91
2023/08/19 10:00:16;;;;;;;2.77;2.57;;;25.50;93.10;;;;;;4917113;29;20943;-91
2023/08/19 10:02:43;;;;;;;2.63;2.43;;;25.50;93.10;;;;;;4917230;29;20495;-90
2023/08/19 10:05:10;;;;;;;4.40;2.83;;;25.50;93.30;;;;;;4917015;29;20447;-91
2023/08/19 10:07:42;;;;;;;3.80;2.90;;;25.50;93.30;;;;;;4917461;29;20453;-92
2023/08/19 10:10:12;;;;;;;3.03;2.57;;;25.60;93.30;;;;;;4919505;29;20444;-91
2023/08/19 10:12:41;;;;;;;2.63;2.43;;;25.60;93.30;;;;;;4917430;29;20446;-91
2023/08/19 10:15:12;;;;;;;4.27;3.10;;;25.60;93.30;;;;;;4918932;29;20534;-92
2023/08/19 10:17:42;;;;;;;2.93;2.63;;;25.50;93.20;;;;;;4918069;29;20436;-92
2023/08/19 10:20:12;;;;;;;5.10;3.90;;;25.60;93.30;;;;;;4918301;29;20447;-91
2023/08/19 10:22:48;;;;;;;3.37;3.17;;;25.60;93.30;;;;;;4918810;29;20487;-91
2023/08/19 10:25:17;;;;;;;3.13;2.83;;;25.60;93.40;;;;;;4915314;29;20459;-91
2023/08/19 10:27:47;;;;;;;3.90;3.60;;;25.60;93.30;;;;;;4923304;29;20443;-96
2023/08/19 10:33:39;;;;;;;3.73;3.43;;;25.60;93.60;;;;;;4922523;29;20989;-94
2023/08/19 10:36:07;;;;;;;3.80;3.30;;;25.60;93.60;;;;;;4921492;29;20431;-93
2023/08/19 10:38:46;;;;;;;4.73;4.23;;;25.60;93.60;;;;;;4920494;29;20533;-94
2023/08/19 10:41:23;;;;;;;4.07;2.70;;;25.60;93.40;;;;;;4920121;29;20538;-91
2023/08/19 10:43:59;;;;;;;3.90;3.60;;;25.60;93.40;;;;;;4919888;29;20581;-94
2023/08/19 10:46:27;;;;;;;6.83;3.20;;;25.60;93.40;;;;;;4928020;29;20450;-90
2023/08/19 10:48:55;;;;;;;3.30;3.00;;;25.60;93.70;;;;;;4927591;29;20454;-89
2023/08/19 10:51:42;;;;;;;4.37;3.30;;;25.60;93.60;;;;;;4925830;29;20954;-89
2023/08/19 10:54:15;;;;;;;3.60;3.30;;;25.60;93.60;;;;;;4927314;29;20479;-96
2023/08/19 10:56:52;;;;;;;4.40;3.27;;;25.60;93.60;;;;;;4930477;29;20504;-91
2023/08/19 10:59:19;;;;;;;2.97;2.67;;;25.60;93.60;;;;;;4931661;29;20443;-90
2023/08/19 11:01:46;;;;;;;4.30;3.27;;;25.60;93.60;;;;;;4920421;29;20452;-91
2023/08/19 11:04:13;;;;;;;5.03;2.93;;;25.60;93.60;;;;;;4920567;29;20939;-90
2023/08/19 11:06:40;;;;;;;3.00;2.70;;;25.60;93.60;;;;;;4919959;29;20462;-90
2023/08/19 11:09:07;;;;;;;3.10;2.90;;;25.50;93.50;;;;;;4919509;29;20459;-90
2023/08/19 11:11:36;;;;;;;5.77;3.40;;;25.50;93.50;;;;;;4920071;29;20547;-92
2023/08/19 11:14:03;;;;;;;3.93;3.47;;;25.50;93.80;;;;;;4922963;29;20466;-94
2023/08/19 11:16:29;;;;;;;7.03;3.30;;;25.50;93.80;;;;;;4924961;29;20486;-93
2023/08/19 11:18:57;;;;;;;3.43;3.13;;;25.50;93.60;;;;;;4926334;29;20457;-95
2023/08/19 11:21:25;;;;;;;4.33;3.70;;;25.50;93.60;;;;;;4924046;29;20825;-92
2023/08/19 11:23:53;;;;;;;3.50;3.30;;;25.50;93.70;;;;;;4908482;29;20476;-93
2023/08/19 11:26:20;;;;;;;3.93;3.63;;;25.50;93.80;;;;;;4907954;29;20466;-93
2023/08/19 11:28:49;;;;;;;4.60;3.70;;;25.50;93.70;;;;;;4907729;29;20452;-93
2023/08/19 11:31:16;;;;;;;7.87;4.40;;;25.50;93.60;;;;;;4907112;29;20463;-93
2023/08/19 11:33:46;;;;;;;5.23;3.80;;;25.60;93.70;;;;;;4918080;23;20545;-93
2023/08/19 11:36:14;;;;;;;4.40;4.00;;;25.50;93.60;;;;;;4932094;23;20498;-93
2023/08/19 11:38:41;;;;;;;7.13;3.50;;;25.50;93.60;;;;;;4951221;23;20502;-93
2023/08/19 11:41:08;;;;;;;4.00;3.40;;;25.50;93.60;;;;;;4951891;23;20589;-93
2023/08/19 11:43:44;;;;;;;3.70;3.50;;;25.50;93.90;;;;;;4947678;29;20509;-93
2023/08/19 11:46:13;;;;;;;5.87;3.60;;;25.50;94.00;;;;;;4946657;29;20427;-92
2023/08/19 11:48:39;;;;;;;3.87;3.43;;;25.50;93.70;;;;;;4942388;29;20926;-94
2023/08/19 11:51:11;;;;;;;3.60;3.30;;;25.50;93.50;;;;;;4945138;29;20480;-93
2023/08/19 11:53:39;;;;;;;3.90;3.60;;;25.50;93.60;;;;;;4944484;29;20460;-93
2023/08/19 11:56:05;;;;;;;4.07;3.77;;;25.50;93.60;;;;;;4943180;29;20938;-93
2023/08/19 11:58:41;;;;;;;3.80;3.50;;;25.50;93.50;;;;;;4946713;29;20534;-93
2023/08/19 12:01:08;;;;;;;3.70;3.40;;;25.50;93.50;;;;;;4943981;29;20549;-93
2023/08/19 12:03:36;;;;;;;3.70;3.40;;;25.50;93.60;;;;;;4927741;23;20576;-92
2023/08/19 12:06:03;;;;;;;3.77;3.47;;;25.50;93.90;;;;;;4886702;29;20448;-93
2023/08/19 12:08:33;;;;;;;4.30;3.43;;;25.50;93.50;;;;;;4920710;23;20488;-93
2023/08/19 12:11:00;;;;;;;3.10;2.80;;;25.50;93.50;;;;;;4926172;29;20463;-93
2023/08/19 12:13:30;;;;;;;4.40;4.10;;;25.50;93.50;;;;;;4925727;29;21034;-92
2023/08/19 12:19:27;;;;;;;3.90;3.00;;;25.50;93.50;;;;;;4913005;29;20508;-93
2023/08/19 12:21:54;;;;;;;3.73;3.40;;;25.40;93.50;;;;;;4912870;29;20458;-92
2023/08/19 12:24:21;;;;;;;4.23;3.93;;;25.50;93.60;;;;;;4918678;29;20574;-92
2023/08/19 12:26:48;;;;;;;4.20;3.80;;;25.40;93.90;;;;;;4919239;29;20621;-92
2023/08/19 12:29:15;;;;;;;3.63;3.30;;;25.40;93.60;;;;;;4926916;29;20498;-92
2023/08/19 12:31:43;;;;;;;3.70;3.50;;;25.40;93.70;;;;;;4926796;29;20462;-92
2023/08/19 12:34:10;;;;;;;5.80;3.27;;;25.50;93.70;;;;;;4915669;23;20468;-92
2023/08/19 12:36:38;;;;;;;3.70;3.50;;;25.40;93.60;;;;;;4906075;29;20463;-92
2023/08/19 12:39:06;;;;;;;3.83;3.30;;;25.40;93.70;;;;;;4906315;29;20484;-92
2023/08/19 12:41:32;;;;;;;3.40;3.10;;;25.40;93.60;;;;;;4924199;23;20500;-92
2023/08/19 12:43:59;;;;;;;4.10;3.70;;;25.50;93.70;;;;;;4925758;29;20491;-90
2023/08/19 12:46:40;;;;;;;2.90;2.53;;;25.40;93.60;;;;;;4921836;29;20549;-92
2023/08/19 12:49:07;;;;;;;3.47;3.17;;;25.40;93.70;;;;;;4921888;29;20438;-92
2023/08/19 12:51:34;;;;;;;3.70;3.50;;;25.40;94.10;;;;;;4914550;29;20563;-92
2023/08/19 12:54:04;;;;;;;3.50;3.20;;;25.50;93.70;;;;;;4902578;29;20885;-92
2023/08/19 12:56:32;;;;;;;3.60;3.40;;;25.50;93.70;;;;;;4905196;29;20429;-92
2023/08/19 12:58:59;;;;;;;4.27;3.27;;;25.50;93.70;;;;;;4895140;23;20476;-92
2023/08/19 13:01:27;;;;;;;3.33;2.83;;;25.50;93.70;;;;;;4887792;29;20932;-92